createdAt,value
2019-02-03T00:01:10.590Z,45.08
2019-02-03T00:03:39.412Z,44.90
2019-02-03T00:06:08.332Z,40.48
2019-02-03T00:08:37.128Z,42.15
2019-02-03T00:11:06.051Z,39.95
2019-02-03T00:13:35.112Z,39.48
2019-02-03T00:16:05.060Z,44.83
2019-02-03T00:18:33.894Z,41.65
2019-02-03T00:21:02.763Z,44.18
2019-02-03T00:23:31.587Z,45.85
2019-02-03T00:26:00.421Z,44.58
2019-02-03T00:28:29.189Z,49.27
2019-02-03T00:30:57.965Z,46.90
2019-02-03T00:33:26.761Z,50.43
2019-02-03T00:35:55.549Z,53.92
2019-02-03T00:38:25.130Z,51.48
2019-02-03T00:40:54.846Z,46.60
2019-02-03T00:43:23.600Z,43.40
2019-02-03T00:45:52.373Z,46.83
2019-02-03T00:48:21.219Z,49.42
2019-02-03T00:50:49.972Z,52.88
2019-02-03T00:53:19.137Z,49.80
2019-02-03T00:55:48.032Z,53.25
2019-02-03T00:58:16.898Z,52.65
2019-02-03T01:00:45.721Z,49.83
2019-02-03T01:03:14.481Z,51.58
2019-02-03T01:05:43.254Z,53.05
2019-02-03T01:08:12.873Z,56.33
2019-02-03T01:10:41.723Z,56.73
2019-02-03T01:13:10.649Z,51.37
2019-02-03T01:15:39.846Z,60.38
2019-02-03T01:18:08.778Z,55.75
2019-02-03T01:20:37.540Z,50.08
2019-02-03T01:23:06.334Z,56.28
2019-02-03T01:25:35.153Z,56.37
2019-02-03T01:28:04.314Z,53.98
2019-02-03T01:30:33.215Z,58.17
2019-02-03T01:33:02.053Z,52.33
2019-02-03T01:35:30.921Z,49.38
2019-02-03T01:37:59.806Z,52.75
2019-02-03T01:40:30.229Z,59.42
2019-02-03T01:42:59.692Z,62.65
2019-02-03T01:45:28.702Z,65.45
2019-02-03T01:47:57.564Z,60.33
2019-02-03T01:50:26.865Z,60.38
2019-02-03T01:52:55.644Z,70.08
2019-02-03T01:55:26.312Z,71.45
2019-02-03T01:57:55.118Z,81.15
2019-02-03T02:00:26.742Z,79.95
2019-02-03T02:02:55.921Z,80.30
2019-02-03T02:05:24.766Z,81.53
2019-02-03T02:07:53.585Z,85.45
2019-02-03T02:10:25.304Z,74.27
2019-02-03T02:12:54.181Z,81.57
2019-02-03T02:15:23.083Z,95.00
2019-02-03T02:17:52.597Z,80.20
2019-02-03T02:20:23.310Z,88.67
2019-02-03T02:22:52.680Z,83.15
2019-02-03T02:25:23.872Z,91.32
2019-02-03T02:27:52.863Z,95.87
2019-02-03T02:30:24.160Z,95.75
2019-02-03T02:32:53.018Z,81.42
2019-02-03T02:35:21.942Z,100.30
2019-02-03T02:38:05.962Z,109.87
2019-02-03T02:40:24.939Z,111.42
2019-02-03T02:42:53.853Z,104.15
2019-02-03T02:45:23.173Z,112.85
2019-02-03T02:47:52.227Z,102.67
2019-02-03T02:50:29.839Z,118.13
2019-02-03T02:52:58.777Z,99.85
2019-02-03T02:55:27.634Z,106.65
2019-02-03T02:57:56.498Z,102.50
2019-02-03T03:00:26.314Z,97.50
2019-02-03T03:02:55.159Z,68.70
2019-02-03T03:05:24.015Z,97.75
2019-02-03T03:07:52.941Z,101.50
2019-02-03T03:10:22.381Z,93.07
2019-02-03T03:12:51.217Z,90.95
2019-02-03T03:15:23.462Z,89.95
2019-02-03T03:17:52.388Z,97.40
2019-02-03T03:20:22.157Z,97.12
2019-02-03T03:22:51.329Z,89.42
2019-02-03T03:25:21.907Z,95.60
2019-02-03T03:27:51.044Z,102.15
2019-02-03T03:30:27.329Z,84.80
2019-02-03T03:32:56.419Z,88.10
2019-02-03T03:35:26.077Z,83.90
2019-02-03T03:37:54.937Z,105.43
2019-02-03T03:40:28.776Z,88.30
2019-02-03T03:42:57.771Z,86.67
2019-02-03T03:45:26.982Z,92.35
2019-02-03T03:47:56.026Z,89.65
2019-02-03T03:50:24.885Z,93.50
2019-02-03T03:52:53.797Z,98.20
2019-02-03T03:55:22.824Z,84.13
2019-02-03T03:57:51.632Z,83.58
2019-02-03T04:00:25.161Z,97.67
2019-02-03T04:02:54.188Z,91.97
2019-02-03T04:05:23.397Z,85.70
2019-02-03T04:07:52.236Z,100.60
2019-02-03T04:10:22.772Z,87.40
2019-02-03T04:12:51.810Z,92.92
2019-02-03T04:15:21.378Z,86.47
2019-02-03T04:17:50.302Z,79.42
2019-02-03T04:20:21.983Z,92.47
2019-02-03T04:22:50.814Z,79.05
2019-02-03T04:25:19.605Z,90.62
2019-02-03T04:27:48.582Z,82.12
2019-02-03T04:30:20.763Z,82.12
2019-02-03T04:32:49.607Z,76.40
2019-02-03T04:35:18.461Z,83.30
2019-02-03T04:37:47.240Z,83.20
2019-02-03T04:40:18.133Z,71.25
2019-02-03T04:42:47.248Z,80.38
2019-02-03T04:45:17.474Z,77.00
2019-02-03T04:47:46.360Z,73.87
2019-02-03T04:50:17.736Z,73.92
2019-02-03T04:52:46.594Z,75.30
2019-02-03T04:55:18.174Z,73.40
2019-02-03T04:57:47.030Z,79.50
2019-02-03T05:00:18.698Z,69.27
2019-02-03T05:02:47.613Z,66.42
2019-02-03T05:05:17.221Z,63.95
2019-02-03T05:07:45.987Z,84.20
2019-02-03T05:10:15.833Z,70.95
2019-02-03T05:12:44.657Z,70.32
2019-02-03T05:15:16.036Z,67.62
2019-02-03T05:17:44.925Z,61.05
2019-02-03T05:20:16.613Z,70.28
2019-02-03T05:22:45.851Z,73.50
2019-02-03T05:25:15.306Z,74.15
2019-02-03T05:27:44.148Z,78.52
2019-02-03T05:30:15.869Z,62.60
2019-02-03T05:32:44.763Z,65.22
2019-02-03T05:35:13.545Z,89.17
2019-02-03T05:37:42.336Z,69.90
2019-02-03T05:40:13.903Z,77.60
2019-02-03T05:42:42.795Z,77.65
2019-02-03T05:45:14.633Z,74.55
2019-02-03T05:47:43.482Z,81.02
2019-02-03T05:50:14.997Z,80.80
2019-02-03T05:52:43.845Z,75.05
2019-02-03T05:55:13.405Z,105.90
2019-02-03T05:57:42.217Z,82.50
2019-02-03T06:00:30.439Z,72.67
2019-02-03T06:02:59.298Z,80.17
2019-02-03T06:05:28.124Z,87.78
2019-02-03T06:07:56.929Z,84.25
2019-02-03T06:10:26.066Z,88.05
2019-02-03T06:12:54.883Z,92.50
2019-02-03T06:15:23.667Z,85.95
2019-02-03T06:17:52.518Z,87.15
2019-02-03T06:20:21.710Z,88.85
2019-02-03T06:22:50.436Z,86.02
2019-02-03T06:25:19.201Z,90.42
2019-02-03T06:27:48.438Z,79.42
2019-02-03T06:30:26.078Z,85.87
2019-02-03T06:32:54.884Z,76.07
2019-02-03T06:35:23.675Z,78.95
2019-02-03T06:37:52.498Z,82.55
2019-02-03T06:40:21.662Z,81.67
2019-02-03T06:42:50.484Z,86.32
2019-02-03T06:45:29.590Z,75.30
2019-02-03T06:47:59.592Z,83.10
2019-02-03T06:50:28.513Z,77.82
2019-02-03T06:52:57.457Z,81.17
2019-02-03T06:55:26.285Z,75.70
2019-02-03T06:57:55.038Z,77.58
2019-02-03T07:00:23.797Z,92.55
2019-02-03T07:02:52.640Z,84.42
2019-02-03T07:05:21.409Z,89.95
2019-02-03T07:07:50.158Z,96.17
2019-02-03T07:10:18.968Z,93.17
2019-02-03T07:12:47.712Z,101.30
2019-02-03T07:15:16.502Z,103.70
2019-02-03T07:17:45.371Z,100.33
2019-02-03T07:20:18.404Z,91.63
2019-02-03T07:22:47.253Z,95.80
2019-02-03T07:25:16.143Z,105.85
2019-02-03T07:27:45.004Z,115.75
2019-02-03T07:30:18.966Z,100.30
2019-02-03T07:32:47.871Z,103.42
2019-02-03T07:35:16.727Z,94.25
2019-02-03T07:37:45.576Z,117.55
2019-02-03T07:40:16.281Z,100.25
2019-02-03T07:42:45.043Z,116.60
2019-02-03T07:45:14.132Z,118.57
2019-02-03T07:47:43.387Z,115.00
2019-02-03T07:50:14.592Z,114.40
2019-02-03T07:52:43.428Z,99.67
2019-02-03T07:55:15.759Z,115.22
2019-02-03T07:57:44.785Z,95.28
2019-02-03T08:00:15.841Z,92.72
2019-02-03T08:02:44.698Z,89.92
2019-02-03T08:05:13.813Z,97.35
2019-02-03T08:07:42.683Z,106.40
2019-02-03T08:10:24.571Z,104.25
2019-02-03T08:12:43.985Z,109.45
2019-02-03T08:15:19.039Z,104.70
2019-02-03T08:17:47.872Z,93.60
2019-02-03T08:20:19.370Z,90.75
2019-02-03T08:22:48.237Z,105.37
2019-02-03T08:25:18.170Z,97.55
2019-02-03T08:27:47.353Z,93.10
2019-02-03T08:30:18.880Z,99.85
2019-02-03T08:32:47.743Z,98.67
2019-02-03T08:35:16.578Z,96.50
2019-02-03T08:37:45.389Z,85.00
2019-02-03T08:40:36.084Z,86.87
2019-02-03T08:42:55.928Z,105.22
2019-02-03T08:45:25.501Z,79.53
2019-02-03T08:47:54.329Z,93.72
2019-02-03T08:50:24.515Z,95.10
2019-02-03T08:52:53.659Z,87.47
2019-02-03T08:55:22.780Z,99.28
2019-02-03T08:57:51.629Z,101.22
2019-02-03T09:00:31.430Z,101.97
2019-02-03T09:03:00.318Z,100.85
2019-02-03T09:05:29.719Z,84.13
2019-02-03T09:07:58.611Z,88.75
2019-02-03T09:10:27.452Z,100.75
2019-02-03T09:12:56.611Z,83.22
2019-02-03T09:15:27.126Z,85.67
2019-02-03T09:17:55.953Z,91.87
2019-02-03T09:20:26.745Z,91.22
2019-02-03T09:22:55.691Z,104.87
2019-02-03T09:25:24.775Z,91.95
2019-02-03T09:27:53.549Z,91.50
2019-02-03T09:30:24.509Z,105.90
2019-02-03T09:32:53.672Z,95.53
2019-02-03T09:35:22.482Z,82.30
2019-02-03T09:37:51.795Z,80.85
2019-02-03T09:40:25.512Z,87.15
2019-02-03T09:42:54.303Z,85.22
2019-02-03T09:45:23.997Z,86.70
2019-02-03T09:47:53.229Z,88.45
2019-02-03T09:50:27.743Z,73.10
2019-02-03T09:52:58.171Z,78.55
2019-02-03T09:55:27.078Z,81.37
2019-02-03T09:57:56.656Z,73.47
2019-02-03T10:00:34.723Z,77.35
2019-02-03T10:03:04.995Z,75.35
2019-02-03T10:05:36.989Z,73.90
2019-02-03T10:08:04.994Z,69.80
2019-02-03T10:10:35.773Z,78.33
2019-02-03T10:13:05.375Z,75.45
2019-02-03T10:15:34.513Z,71.75
2019-02-03T10:18:04.226Z,81.28
2019-02-03T10:20:33.101Z,80.47
2019-02-03T10:23:01.860Z,88.10
2019-02-03T10:25:31.559Z,75.78
2019-02-03T10:28:00.460Z,83.07
2019-02-03T10:30:29.296Z,86.90
2019-02-03T10:32:58.138Z,74.10
2019-02-03T10:35:28.821Z,80.25
2019-02-03T10:37:58.142Z,88.27
2019-02-03T10:40:29.670Z,88.62
2019-02-03T10:42:59.955Z,79.67
2019-02-03T10:45:29.029Z,85.50
2019-02-03T10:47:57.919Z,75.45
2019-02-03T10:50:29.801Z,69.25
2019-02-03T10:52:59.226Z,66.55
2019-02-03T10:55:28.099Z,62.38
2019-02-03T10:57:57.259Z,79.32
2019-02-03T11:00:32.051Z,63.55
2019-02-03T11:03:01.012Z,69.17
2019-02-03T11:05:32.729Z,67.85
2019-02-03T11:08:01.587Z,77.97
2019-02-03T11:10:30.484Z,79.58
2019-02-03T11:12:59.300Z,67.70
2019-02-03T11:15:28.091Z,72.42
2019-02-03T11:17:56.953Z,66.57
2019-02-03T11:20:31.073Z,67.30
2019-02-03T11:23:00.132Z,67.32
2019-02-03T11:25:30.838Z,70.42
2019-02-03T11:27:59.657Z,69.97
2019-02-03T11:30:32.046Z,64.67
2019-02-03T11:33:05.926Z,73.87
2019-02-03T11:35:32.374Z,70.32
2019-02-03T11:38:01.329Z,65.17
2019-02-03T11:40:32.771Z,56.60
2019-02-03T11:43:01.584Z,61.30
2019-02-03T11:45:35.696Z,52.13
2019-02-03T11:48:08.099Z,62.33
2019-02-03T11:50:39.559Z,59.10
2019-02-03T11:53:10.725Z,58.63
2019-02-03T11:55:39.501Z,55.90
2019-02-03T11:58:08.857Z,57.95
2019-02-03T12:00:37.809Z,64.65
2019-02-03T12:03:07.468Z,57.78
2019-02-03T12:05:36.232Z,60.43
2019-02-03T12:08:05.533Z,57.23
2019-02-03T12:10:34.329Z,60.90
2019-02-03T12:13:03.466Z,57.15
2019-02-03T12:15:32.220Z,65.65
2019-02-03T12:18:01.008Z,56.65
2019-02-03T12:20:29.853Z,51.83
2019-02-03T12:22:58.715Z,57.40
2019-02-03T12:25:33.327Z,57.70
2019-02-03T12:28:02.200Z,45.12
2019-02-03T12:30:32.920Z,50.43
2019-02-03T12:33:02.589Z,55.33
2019-02-03T12:35:31.359Z,50.28
2019-02-03T12:38:00.202Z,49.63
2019-02-03T12:40:31.804Z,46.68
2019-02-03T12:43:00.615Z,49.63
2019-02-03T12:45:30.111Z,59.90
2019-02-03T12:47:58.977Z,48.68
2019-02-03T12:50:27.846Z,45.03
2019-02-03T12:52:56.653Z,45.28
2019-02-03T12:55:28.345Z,43.70
2019-02-03T12:57:57.188Z,41.90
2019-02-03T13:00:28.621Z,40.43
2019-02-03T13:02:57.514Z,44.93
2019-02-03T13:05:27.688Z,58.00
2019-02-03T13:07:57.726Z,43.90
2019-02-03T13:10:28.554Z,57.65
2019-02-03T13:12:57.303Z,41.92
2019-02-03T13:15:29.008Z,44.90
2019-02-03T13:17:57.803Z,41.35
2019-02-03T13:20:29.375Z,44.98
2019-02-03T13:22:58.713Z,49.70
2019-02-03T13:25:27.796Z,46.45
2019-02-03T13:27:56.610Z,52.23
2019-02-03T13:30:31.236Z,45.83
2019-02-03T13:33:00.046Z,42.62
2019-02-03T13:35:28.858Z,43.35
2019-02-03T13:37:57.857Z,38.75
2019-02-03T13:40:26.856Z,48.70
2019-02-03T13:42:55.636Z,39.53
2019-02-03T13:45:27.778Z,43.92
2019-02-03T13:47:59.135Z,41.85
2019-02-03T13:50:28.893Z,50.25
2019-02-03T13:52:58.031Z,45.38
2019-02-03T13:55:27.656Z,42.33
2019-02-03T13:57:56.667Z,45.52
2019-02-03T14:00:28.620Z,40.00
2019-02-03T14:02:57.509Z,45.52
2019-02-03T14:05:26.367Z,41.88
2019-02-03T14:07:55.144Z,46.25
2019-02-03T14:10:29.588Z,38.78
2019-02-03T14:12:58.757Z,36.08
2019-02-03T14:15:27.782Z,39.20
2019-02-03T14:17:56.682Z,43.42
2019-02-03T14:20:30.913Z,41.37
2019-02-03T14:23:00.266Z,32.58
2019-02-03T14:25:29.957Z,31.90
2019-02-03T14:28:00.394Z,42.38
2019-02-03T14:30:40.578Z,33.73
2019-02-03T14:33:05.400Z,38.63
2019-02-03T14:35:34.430Z,39.25
2019-02-03T14:38:04.621Z,39.55
2019-02-03T14:40:33.648Z,36.75
2019-02-03T14:43:02.578Z,26.55
2019-02-03T14:45:31.597Z,37.53
2019-02-03T14:48:00.419Z,40.38
2019-02-03T14:50:29.195Z,39.40
2019-02-03T14:53:04.236Z,40.75
2019-02-03T14:55:38.839Z,36.58
2019-02-03T14:58:07.974Z,34.00
2019-02-03T15:00:50.195Z,38.65
2019-02-03T15:03:20.336Z,39.50
2019-02-03T15:05:49.337Z,40.25
2019-02-03T15:08:18.234Z,39.88
2019-02-03T15:10:47.057Z,38.00
2019-02-03T15:13:16.033Z,30.05
2019-02-03T15:15:45.210Z,37.38
2019-02-03T15:18:14.011Z,35.15
2019-02-03T15:20:42.816Z,33.80
2019-02-03T15:23:11.865Z,35.08
2019-02-03T15:25:40.839Z,35.83
2019-02-03T15:28:10.810Z,29.00
2019-02-03T15:30:41.868Z,38.55
2019-02-03T15:33:10.681Z,34.55
2019-02-03T15:35:39.455Z,31.52
2019-02-03T15:38:10.198Z,30.00
2019-02-03T15:40:38.993Z,28.45
2019-02-03T15:43:07.870Z,32.03
2019-02-03T15:45:36.771Z,34.92
2019-02-03T15:48:06.359Z,31.10
2019-02-03T15:50:35.260Z,40.05
2019-02-03T15:55:36.127Z,28.30
2019-02-03T15:58:10.437Z,34.03
2019-02-03T16:03:45.679Z,30.75
2019-02-03T16:06:18.783Z,33.90
2019-02-03T16:08:52.047Z,30.77
2019-02-03T16:11:29.685Z,33.48
2019-02-03T16:13:59.074Z,31.33
2019-02-03T16:16:32.367Z,36.15
2019-02-03T16:19:08.016Z,31.02
2019-02-03T16:21:43.287Z,30.62
2019-02-03T16:24:14.129Z,32.33
2019-02-03T16:26:49.233Z,29.25
2019-02-03T16:32:14.964Z,36.70
2019-02-03T16:34:47.114Z,32.98
2019-02-03T16:37:21.272Z,31.12
2019-02-03T16:39:59.787Z,27.30
2019-02-03T16:42:42.578Z,31.90
2019-02-03T16:45:13.068Z,32.98
2019-02-03T16:47:50.804Z,33.23
2019-02-03T16:50:31.642Z,28.60
2019-02-03T16:53:05.402Z,30.72
2019-02-03T16:55:36.355Z,28.50
2019-02-03T16:58:06.960Z,33.48
2019-02-03T17:00:44.615Z,28.98
2019-02-03T17:03:22.950Z,34.35
2019-02-03T17:06:07.733Z,27.95
2019-02-03T17:08:33.521Z,28.57
2019-02-03T17:11:02.376Z,34.30
2019-02-03T17:13:31.220Z,25.40
2019-02-03T17:16:00.114Z,30.60
2019-02-03T17:18:28.969Z,32.98
2019-02-03T17:21:01.995Z,31.33
2019-02-03T17:23:28.512Z,30.40
2019-02-03T17:26:02.976Z,33.95
2019-02-03T17:28:31.775Z,27.32
2019-02-03T17:31:00.566Z,29.05
2019-02-03T17:33:29.433Z,33.73
2019-02-03T17:35:58.373Z,30.35
2019-02-03T17:38:27.205Z,27.60
2019-02-03T17:40:56.092Z,31.77
2019-02-03T17:43:24.852Z,24.10
2019-02-03T17:45:54.097Z,29.00
2019-02-03T17:48:23.042Z,27.07
2019-02-03T17:50:51.875Z,24.40
2019-02-03T17:53:20.718Z,27.15
2019-02-03T17:55:49.591Z,28.42
2019-02-03T17:58:18.492Z,26.93
2019-02-03T18:00:49.072Z,27.48
2019-02-03T18:03:18.002Z,32.05
2019-02-03T18:05:47.337Z,29.10
2019-02-03T18:08:16.470Z,36.00
2019-02-03T18:10:45.270Z,29.30
2019-02-03T18:13:14.088Z,35.38
2019-02-03T18:15:42.945Z,30.75
2019-02-03T18:18:12.042Z,29.55
2019-02-03T18:20:40.889Z,30.00
2019-02-03T18:23:10.046Z,33.28
2019-02-03T18:25:39.267Z,31.60
2019-02-03T18:28:08.082Z,31.45
2019-02-03T18:30:38.797Z,36.17
2019-02-03T18:33:08.629Z,35.17
2019-02-03T18:35:37.463Z,30.02
2019-02-03T18:38:09.500Z,30.32
2019-02-03T18:40:38.528Z,36.10
2019-02-03T18:43:07.912Z,26.93
2019-02-03T18:45:36.788Z,30.35
2019-02-03T18:48:05.949Z,29.15
2019-02-03T18:50:35.078Z,36.75
2019-02-03T18:53:04.398Z,32.23
2019-02-03T18:55:38.553Z,30.32
2019-02-03T18:58:07.623Z,36.03
2019-02-03T19:00:38.075Z,30.97
2019-02-03T19:03:09.498Z,29.02
2019-02-03T19:05:40.410Z,29.05
2019-02-03T19:08:09.216Z,26.87
2019-02-03T19:10:38.016Z,26.87
2019-02-03T19:13:07.039Z,32.00
2019-02-03T19:15:36.213Z,29.85
2019-02-03T19:18:06.417Z,32.15
2019-02-03T19:20:37.511Z,27.05
2019-02-03T19:23:07.292Z,32.17
2019-02-03T19:25:36.175Z,28.25
2019-02-03T19:28:06.242Z,28.35
2019-02-03T19:30:37.461Z,27.07
2019-02-03T19:33:06.720Z,28.00
2019-02-03T19:35:36.062Z,25.62
2019-02-03T19:38:07.070Z,29.75
2019-02-03T19:40:36.194Z,29.18
2019-02-03T19:43:06.612Z,28.52
2019-02-03T19:45:35.437Z,26.52
2019-02-03T19:48:05.361Z,28.27
2019-02-03T19:50:39.073Z,26.12
2019-02-03T19:53:09.228Z,25.17
2019-02-03T19:55:38.214Z,22.82
2019-02-03T19:58:07.427Z,28.05
2019-02-03T20:00:44.425Z,23.62
2019-02-03T20:03:13.270Z,23.77
2019-02-03T20:05:42.761Z,25.82
2019-02-03T20:08:12.541Z,26.35
2019-02-03T20:10:41.368Z,21.68
2019-02-03T20:13:10.196Z,25.00
2019-02-03T20:15:39.130Z,22.25
2019-02-03T20:18:08.091Z,24.30
2019-02-03T20:20:41.270Z,19.98
2019-02-03T20:23:10.522Z,18.12
2019-02-03T20:25:39.682Z,30.05
2019-02-03T20:28:09.003Z,20.88
2019-02-03T20:30:39.578Z,25.32
2019-02-03T20:33:08.392Z,27.22
2019-02-03T20:35:37.213Z,24.27
2019-02-03T20:38:06.473Z,19.98
2019-02-03T20:40:38.539Z,17.35
2019-02-03T20:43:07.899Z,26.60
2019-02-03T20:45:48.411Z,18.17
2019-02-03T20:48:07.497Z,19.50
2019-02-03T20:50:38.019Z,18.17
2019-02-03T20:53:06.857Z,13.18
2019-02-03T20:55:35.715Z,15.03
2019-02-03T20:58:04.569Z,10.98
2019-02-03T21:00:35.641Z,17.42
2019-02-03T21:03:05.665Z,14.00
2019-02-03T21:05:34.683Z,13.38
2019-02-03T21:08:13.506Z,14.93
2019-02-03T21:10:42.634Z,16.37
2019-02-03T21:13:12.028Z,18.02
2019-02-03T21:15:40.973Z,17.35
2019-02-03T21:18:10.122Z,16.45
2019-02-03T21:20:38.963Z,19.77
2019-02-03T21:23:07.730Z,17.65
2019-02-03T21:25:37.104Z,20.65
2019-02-03T21:28:06.278Z,15.45
2019-02-03T21:30:37.434Z,13.62
2019-02-03T21:33:06.441Z,17.12
2019-02-03T21:35:35.176Z,12.90
2019-02-03T21:38:04.859Z,20.23
2019-02-03T21:40:33.690Z,13.22
2019-02-03T21:43:02.476Z,18.50
2019-02-03T21:45:31.391Z,14.35
2019-02-03T21:48:00.305Z,17.42
2019-02-03T21:50:32.305Z,16.00
2019-02-03T21:53:01.075Z,14.78
2019-02-03T21:55:29.921Z,13.65
2019-02-03T21:57:58.766Z,13.80
2019-02-03T22:00:30.759Z,13.28
2019-02-03T22:02:59.702Z,17.70
2019-02-03T22:05:28.950Z,16.23
2019-02-03T22:07:57.874Z,11.97
2019-02-03T22:10:35.461Z,14.15
2019-02-03T22:13:05.770Z,14.40
2019-02-03T22:15:34.656Z,20.95
2019-02-03T22:18:03.610Z,14.58
2019-02-03T22:20:32.518Z,13.40
2019-02-03T22:23:01.268Z,15.63
2019-02-03T22:25:30.021Z,15.20
2019-02-03T22:27:58.757Z,14.33
2019-02-03T22:30:30.022Z,13.08
2019-02-03T22:32:58.885Z,17.05
2019-02-03T22:35:27.738Z,14.45
2019-02-03T22:37:56.603Z,15.15
2019-02-03T22:40:25.749Z,13.30
2019-02-03T22:42:54.587Z,12.40
2019-02-03T22:45:24.815Z,12.07
2019-02-03T22:47:54.021Z,13.85
2019-02-03T22:50:24.938Z,15.43
2019-02-03T22:52:53.892Z,13.30
2019-02-03T22:55:22.702Z,14.43
2019-02-03T22:57:51.483Z,10.48
2019-02-03T23:00:52.031Z,13.85
2019-02-03T23:03:27.026Z,11.73
2019-02-03T23:05:55.878Z,15.13
2019-02-03T23:08:24.712Z,12.63
2019-02-03T23:10:53.524Z,14.85
2019-02-03T23:13:22.354Z,13.08
2019-02-03T23:15:51.425Z,11.55
2019-02-03T23:18:20.262Z,11.40
2019-02-03T23:20:49.162Z,15.25
2019-02-03T23:23:17.969Z,13.58
2019-02-03T23:25:46.765Z,14.43
2019-02-03T23:28:15.585Z,13.38
2019-02-03T23:30:44.630Z,15.25
2019-02-03T23:33:13.424Z,15.60
2019-02-03T23:35:42.278Z,12.60
2019-02-03T23:38:11.058Z,14.73
2019-02-03T23:40:39.872Z,12.07
2019-02-03T23:43:09.092Z,11.43
2019-02-03T23:45:37.904Z,19.70
2019-02-03T23:48:06.748Z,14.63
2019-02-03T23:50:35.988Z,12.05
2019-02-03T23:53:04.800Z,15.00
2019-02-03T23:55:33.655Z,12.82
2019-02-03T23:58:02.482Z,14.78
